Data for 02/08/2016

Time Sea-Level Adjusted Pressure Absolute Pressure Temperature Relative Humidity Dew Point   
(mb) (inHg) (mb) (inHg) (C) (F) (%) (C) (F)
00:05 1032 30.47 861 25.43 2.4 36.3 44 -8.6 16.6
00:10 1032 30.47 862 25.45 2.2 36 45 -8.4 16.9
00:15 1032 30.47 862 25.45 2.1 35.9 40 -10.1 13.8
00:20 1032 30.47 862 25.45 2.5 36.5 40 -9.9 14.1
00:25 1032 30.47 862 25.45 2.6 36.8 39 -9.8 14.3
00:30 1033 30.5 862 25.45 2.7 36.8 40 -9.6 14.8
00:35 1033 30.5 862 25.45 2.8 37 38 -10.3 13.5
00:40 1033 30.5 862 25.45 2.9 37.3 37 -10.5 13.2
00:45 1033 30.5 862 25.45 3 37.5 38 -10.1 13.8
00:50 1033 30.5 862 25.45 3 37.5 39 -9.5 14.9
00:55 1032 30.47 862 25.45 3 37.4 36 -10.8 12.6
01:00 1033 30.5 862 25.45 3 37.5 37 -10.4 13.3
01:05 1032 30.47 862 25.45 3.1 37.6 37 -10.3 13.5
01:10 1032 30.47 862 25.45 3.2 37.7 37 -10.1 13.9
01:15 1032 30.47 862 25.45 3.3 37.9 35 -10.6 12.9
01:20 1032 30.47 862 25.45 3.4 38.1 37 -10 14
01:25 1032 30.47 862 25.45 3.3 37.9 37 -10.1 13.9
01:30 1032 30.47 862 25.45 3.1 37.7 39 -9.6 14.7
01:35 1032 30.47 862 25.45 3.1 37.6 38 -10 13.9
01:40 1032 30.47 861 25.43 3.2 37.7 38 -9.9 14.2
01:45 1032 30.47 862 25.45 3.2 37.8 38 -9.8 14.3
01:50 1033 30.5 862 25.45 3.2 37.8 38 -9.7 14.5
01:55 1033 30.5 862 25.45 3.3 37.9 37 -10.1 13.8
02:00 1033 30.5 862 25.45 3.3 38 37 -10 14
02:05 1033 30.5 862 25.45 3.3 37.9 39 -9.4 15.1
02:10 1033 30.5 862 25.45 3.2 37.7 38 -9.7 14.6
02:15 1033 30.5 862 25.45 3.2 37.7 39 -9.5 14.9
02:20 1033 30.5 862 25.45 3.2 37.7 40 -9.3 15.3
02:25 1033 30.5 862 25.45 3.1 37.6 42 -8.6 16.6
02:30 1033 30.5 862 25.45 3 37.4 42 -8.8 16.2
02:35 1033 30.5 862 25.45 2.9 37.3 42 -8.7 16.4
02:40 1033 30.5 862 25.45 3 37.4 42 -8.7 16.3
02:45 1033 30.5 862 25.45 3 37.4 43 -8.5 16.8
02:50 1033 30.5 862 25.45 2.9 37.3 44 -8 17.5
02:55 1033 30.5 862 25.45 2.8 37.1 44 -8.2 17.2
03:00 1033 30.5 862 25.45 2.9 37.2 44 -8.3 17.1
03:05 1033 30.5 862 25.45 2.9 37.2 45 -7.8 18
03:10 1032 30.47 862 25.45 2.7 36.9 47 -7.4 18.6
03:15 1033 30.5 862 25.45 2.6 36.6 48 -7.3 18.8
03:20 1033 30.5 862 25.45 2.5 36.6 47 -7.6 18.2
03:25 1033 30.5 862 25.45 2.5 36.6 49 -7.2 19
03:30 1033 30.5 862 25.45 2.4 36.4 50 -7 19.3
03:35 1033 30.5 862 25.45 2.2 36 51 -6.8 19.7
03:40 1033 30.5 862 25.45 2 35.6 51 -7 19.4
03:45 1033 30.5 862 25.45 2.2 35.9 50 -7.1 19.2
03:50 1033 30.5 862 25.45 2.3 36.2 51 -6.9 19.5
03:55 1033 30.5 862 25.45 2.3 36.1 51 -6.9 19.6
04:00 1033 30.5 862 25.45 2.4 36.3 51 -6.8 19.7
04:05 1033 30.5 862 25.45 2.5 36.5 51 -6.7 20
04:10 1033 30.5 862 25.45 2.6 36.7 50 -6.8 19.8
04:15 1033 30.5 862 25.45 2.8 37 50 -6.7 19.9
04:20 1033 30.5 862 25.45 2.6 36.7 50 -6.7 19.9
04:25 1033 30.5 862 25.45 2.5 36.5 50 -6.9 19.6
04:30 1033 30.5 862 25.45 2.5 36.5 50 -6.8 19.7
04:35 1033 30.5 862 25.45 2.5 36.5 50 -7 19.4
04:40 1033 30.5 862 25.45 2.7 36.9 48 -7.1 19.2
04:45 1033 30.5 862 25.45 2.9 37.2 48 -7 19.5
04:50 1033 30.5 862 25.45 2.9 37.3 49 -6.8 19.8
04:55 1033 30.5 862 25.45 2.9 37.2 48 -7 19.4
05:00 1033 30.5 862 25.45 3 37.3 48 -6.9 19.6
05:05 1033 30.5 862 25.45 2.9 37.3 49 -6.8 19.8
05:10 1033 30.5 862 25.45 2.9 37.2 49 -6.9 19.5
05:15 1033 30.5 862 25.45 2.8 37 49 -6.8 19.8
05:20 1033 30.5 862 25.45 2.7 36.9 49 -6.9 19.6
05:25 1033 30.5 862 25.45 2.7 36.9 49 -6.9 19.5
05:30 1033 30.5 862 25.45 2.6 36.7 50 -6.8 19.7
05:35 1033 30.5 862 25.45 2.5 36.4 49 -7.1 19.2
05:40 1033 30.5 862 25.45 2.4 36.4 49 -7.2 19
05:45 1033 30.5 862 25.45 2.6 36.7 48 -7.3 18.8
05:50 1033 30.5 862 25.45 2.5 36.6 48 -7.4 18.7
05:55 1033 30.5 862 25.45 2.3 36.2 49 -7.2 19
06:00 1033 30.5 862 25.45 2.2 35.9 49 -7.6 18.4
06:05 1033 30.5 862 25.45 2.2 36 48 -7.6 18.3
06:10 1033 30.5 862 25.45 2.2 36 48 -7.6 18.4
06:15 1033 30.5 862 25.45 2.3 36.2 47 -7.9 17.9
06:20 1033 30.5 862 25.45 2.5 36.5 47 -7.6 18.2
06:25 1033 30.5 862 25.45 2.7 36.8 47 -7.5 18.6
06:30 1033 30.5 862 25.45 2.9 37.2 47 -7.2 19
06:35 1033 30.5 862 25.45 3 37.3 48 -7 19.3
06:40 1033 30.5 862 25.45 3 37.4 48 -6.9 19.6
06:45 1033 30.5 862 25.45 3.2 37.8 47 -7 19.5
06:50 1033 30.5 862 25.45 3.3 37.9 48 -6.7 20
06:55 1033 30.5 862 25.45 3.1 37.5 50 -6.4 20.5
07:00 1033 30.5 862 25.45 2.8 37 52 -6.2 20.8
07:05 1033 30.5 862 25.45 2.5 36.6 54 -5.9 21.4
07:10 1033 30.5 862 25.45 2.5 36.5 56 -5.4 22.3
07:15 1033 30.5 862 25.45 2.9 37.2 54 -5.5 22.1
07:20 1033 30.5 862 25.45 2.9 37.3 54 -5.4 22.2
07:25 1033 30.5 862 25.45 3 37.4 54 -5.4 22.2
07:30 1033 30.5 862 25.45 2.9 37.2 54 -5.4 22.3
07:35 1033 30.5 862 25.45 2.7 36.9 56 -5.2 22.6
07:40 1033 30.5 862 25.45 2.6 36.7 56 -5.2 22.6
07:45 1033 30.5 862 25.45 2.6 36.7 57 -5.2 22.7
07:50 1033 30.5 862 25.45 2.5 36.4 57 -5.2 22.7
07:55 1033 30.5 862 25.45 2.3 36.2 58 -5.1 22.9
08:00 1033 30.5 862 25.45 2.2 35.9 59 -5 22.9
08:05 1033 30.5 862 25.45 2.4 36.3 58 -5 23
08:10 1033 30.5 862 25.45 2.3 36.2 59 -4.9 23.3
08:15 1033 30.5 862 25.45 2.5 36.5 57 -5.1 22.8
08:20 1033 30.5 862 25.45 3 37.5 56 -4.8 23.3
08:25 1033 30.5 862 25.45 3.2 37.7 57 -4.6 23.7
08:30 1033 30.5 862 25.45 3.1 37.5 57 -4.6 23.7
08:35 1033 30.5 862 25.45 3 37.4 57 -4.7 23.5
08:40 1033 30.5 862 25.45 3.2 37.8 56 -4.6 23.6
08:45 1033 30.5 863 25.48 3.2 37.8 56 -4.7 23.5
08:50 1033 30.5 863 25.48 3.4 38.1 55 -4.8 23.4
08:55 1034 30.53 863 25.48 3.6 38.4 55 -4.7 23.5
09:00 1034 30.53 863 25.48 3.5 38.2 56 -4.6 23.8
09:05 1034 30.53 863 25.48 2.8 37.1 56 -5.1 22.8
09:10 1034 30.53 863 25.48 2.9 37.2 58 -4.6 23.7
09:15 1033 30.5 863 25.48 2.5 36.4 58 -4.9 23.1
09:20 1034 30.53 863 25.48 2.7 36.9 58 -4.8 23.4
09:25 1034 30.53 863 25.48 2.4 36.4 59 -4.8 23.4
09:30 1034 30.53 863 25.48 2.4 36.2 59 -5 23.1
09:35 1034 30.53 863 25.48 2.4 36.4 59 -4.8 23.4
09:40 1034 30.53 863 25.48 2.5 36.5 58 -4.9 23.1
09:45 1034 30.53 863 25.48 2.7 36.9 57 -4.9 23.2
09:50 1034 30.53 863 25.48 3 37.3 57 -4.8 23.4
09:55 1034 30.53 863 25.48 3.1 37.5 58 -4.5 23.9
10:00 1034 30.53 863 25.48 3.1 37.6 56 -4.7 23.5
10:05 1034 30.53 863 25.48 3.4 38.1 56 -4.5 23.9
10:10 1034 30.53 863 25.48 3.5 38.3 56 -4.5 23.8
10:15 1034 30.53 863 25.48 3.7 38.6 55 -4.5 23.8
10:20 1034 30.53 863 25.48 3.7 38.7 55 -4.5 23.9
10:25 1034 30.53 863 25.48 3.8 38.9 54 -4.7 23.6
10:30 1034 30.53 863 25.48 4.1 39.4 53 -4.6 23.8
10:35 1034 30.53 863 25.48 4.4 40 51 -4.8 23.4
10:40 1034 30.53 863 25.48 4.8 40.6 51 -4.6 23.8
10:45 1034 30.53 863 25.48 4.8 40.7 51 -4.5 23.8
10:50 1034 30.53 863 25.48 5.3 41.5 49 -4.5 23.9
10:55 1034 30.53 863 25.48 5.4 41.8 50 -4.1 24.6
11:00 1034 30.53 863 25.48 5.2 41.3 51 -4.2 24.5
11:05 1034 30.53 863 25.48 5.4 41.7 50 -4.3 24.3
11:10 1034 30.53 863 25.48 5.9 42.6 48 -4.2 24.4
11:15 1034 30.53 863 25.48 6.3 43.3 48 -4 24.9
11:20 1034 30.53 863 25.48 6.4 43.6 47 -4 24.8
11:25 1034 30.53 863 25.48 6.6 43.9 47 -3.9 25
11:30 1034 30.53 863 25.48 6.6 43.8 47 -4 24.8
11:35 1034 30.53 863 25.48 6.7 44 47 -3.9 25
11:40 1033 30.5 863 25.48 6.6 44 47 -3.8 25.1
11:45 1033 30.5 863 25.48 6.6 43.9 48 -3.7 25.4
11:50 1033 30.5 862 25.45 6.8 44.3 47 -3.8 25.1
11:55 1033 30.5 862 25.45 7.2 45 46 -3.5 25.7
12:00 1033 30.5 863 25.48 7.3 45.2 46 -3.6 25.5
12:05 1033 30.5 863 25.48 7.2 44.9 46 -3.7 25.3
12:10 1033 30.5 863 25.48 7.1 44.8 47 -3.4 25.8
12:15 1033 30.5 863 25.48 7.2 44.9 46 -3.5 25.6
12:20 1033 30.5 863 25.48 7 44.7 47 -3.4 25.8
12:25 1033 30.5 863 25.48 6.9 44.4 47 -3.5 25.6
12:30 1033 30.5 863 25.48 7 44.6 47 -3.4 25.9
12:35 1033 30.5 863 25.48 7 44.5 47 -3.5 25.6
12:40 1033 30.5 863 25.48 7.1 44.8 47 -3.4 25.9
12:45 1033 30.5 862 25.45 7.3 45.1 47 -3.4 25.8
12:50 1033 30.5 862 25.45 7.3 45.1 47 -3.3 26
12:55 1033 30.5 862 25.45 7.3 45.2 44 -4.1 24.6
13:00 1033 30.5 862 25.45 7.7 45.8 41 -4.7 23.5
13:05 1033 30.5 862 25.45 7.5 45.5 43 -4.3 24.3
13:10 1033 30.5 862 25.45 7.6 45.8 43 -4.2 24.4
13:15 1033 30.5 862 25.45 7.6 45.6 44 -3.9 24.9
13:20 1033 30.5 862 25.45 7.2 45 43 -4.5 23.9
13:25 1033 30.5 862 25.45 7.5 45.5 43 -4.1 24.5
13:30 1033 30.5 862 25.45 8 46.3 44 -3.7 25.4
13:35 1033 30.5 862 25.45 8.1 46.5 43 -3.8 25.1
13:40 1033 30.5 862 25.45 8.6 47.5 40 -4.1 24.6
13:45 1033 30.5 862 25.45 9.4 48.9 38 -4.3 24.2
13:50 1032 30.47 862 25.45 9.5 49.1 38 -3.9 25
13:55 1032 30.47 862 25.45 9.4 49 40 -3.4 25.9
14:00 1032 30.47 862 25.45 9.6 49.2 38 -3.9 25
14:05 1032 30.47 862 25.45 9.2 48.5 39 -4 24.8
14:10 1032 30.47 861 25.43 9.4 48.8 38 -4.1 24.6
14:15 1032 30.47 861 25.43 9.7 49.4 38 -4 24.8
14:20 1032 30.47 861 25.43 9.9 49.8 37 -4 24.7
14:25 1032 30.47 861 25.43 10 49.9 37 -3.9 24.9
14:30 1032 30.47 861 25.43 9.8 49.6 38 -3.8 25.1
14:35 1032 30.47 861 25.43 9.6 49.3 39 -3.8 25.2
14:40 1032 30.47 861 25.43 9.7 49.4 39 -3.7 25.3
14:45 1032 30.47 861 25.43 9.6 49.4 38 -4 24.9
14:50 1032 30.47 861 25.43 9.7 49.5 38 -3.7 25.3
14:55 1032 30.47 861 25.43 9.7 49.5 38 -4 24.7
15:00 1032 30.47 861 25.43 9.8 49.6 39 -3.6 25.6
15:05 1032 30.47 861 25.43 9.9 49.8 37 -4.1 24.6
15:10 1032 30.47 861 25.43 10.2 50.3 37 -3.9 24.9
15:15 1032 30.47 861 25.43 10.3 50.6 37 -3.8 25.1
15:20 1032 30.47 861 25.43 10.6 51.1 37 -3.5 25.7
15:25 1032 30.47 861 25.43 10.7 51.3 37 -3.5 25.8
15:30 1032 30.47 861 25.43 10.9 51.6 35 -3.9 25
15:35 1032 30.47 861 25.43 10.9 51.7 36 -3.7 25.3
15:40 1032 30.47 861 25.43 10.7 51.2 37 -3.5 25.7
15:45 1032 30.47 861 25.43 10.4 50.8 37 -3.8 25.2
15:50 1032 30.47 861 25.43 10.5 50.9 36 -3.8 25.2
15:55 1032 30.47 861 25.43 10.7 51.2 36 -3.7 25.4
16:00 1032 30.47 861 25.43 10.5 51 37 -3.6 25.5
16:05 1032 30.47 861 25.43 10.5 50.8 37 -3.8 25.2
16:10 1032 30.47 861 25.43 10.7 51.3 36 -3.7 25.4
16:15 1032 30.47 861 25.43 10.8 51.4 37 -3.4 25.9
16:20 1032 30.47 861 25.43 11.2 52.1 36 -3.5 25.7
16:25 1032 30.47 861 25.43 11.1 51.9 36 -3.4 25.8
16:30 1032 30.47 861 25.43 10.6 51.1 37 -3.3 26
16:35 1032 30.47 861 25.43 10.4 50.7 38 -3.3 26
16:40 1032 30.47 861 25.43 10.4 50.7 37 -3.6 25.5
16:45 1032 30.47 861 25.43 10.8 51.4 36 -3.6 25.5
16:50 1031 30.45 861 25.43 11 51.8 36 -3.4 25.9
16:55 1031 30.45 861 25.43 11 51.8 36 -3.3 26.1
17:00 1031 30.45 861 25.43 10.9 51.6 37 -3.3 26
17:05 1031 30.45 861 25.43 10.9 51.7 37 -3.2 26.2
17:10 1031 30.45 861 25.43 10.9 51.5 37 -3.3 26.1
17:15 1031 30.45 861 25.43 10.7 51.3 37 -3.3 26
17:20 1031 30.45 861 25.43 10.7 51.2 37 -3.2 26.2
17:25 1031 30.45 861 25.43 10.7 51.2 37 -3.3 26
17:30 1031 30.45 861 25.43 10.9 51.7 37 -3.3 26
17:35 1031 30.45 861 25.43 10.9 51.5 37 -3.2 26.2
17:40 1031 30.45 861 25.43 10.8 51.4 38 -3.1 26.5
17:45 1031 30.45 861 25.43 10.6 51 39 -2.8 26.9
17:50 1032 30.47 861 25.43 10.3 50.5 39 -3 26.7
17:55 1031 30.45 861 25.43 10 50.1 40 -3 26.6
18:00 1031 30.45 861 25.43 9.8 49.7 40 -3 26.6
18:05 1031 30.45 861 25.43 9.6 49.2 42 -2.8 27
18:10 1031 30.45 861 25.43 9.4 49 43 -2.6 27.3
18:15 1031 30.45 861 25.43 9.2 48.6 43 -2.6 27.3
18:20 1031 30.45 861 25.43 9.2 48.6 42 -2.9 26.7
18:25 1031 30.45 861 25.43 9.4 48.8 43 -2.7 27.1
18:30 1031 30.45 861 25.43 9.3 48.7 42 -2.8 26.9
18:35 1031 30.45 860 25.4 9.1 48.3 43 -2.8 26.9
18:40 1031 30.45 860 25.4 8.7 47.7 44 -2.9 26.8
18:45 1031 30.45 860 25.4 8.5 47.3 44 -3.1 26.4
18:50 1031 30.45 860 25.4 8.5 47.3 45 -2.8 26.9
18:55 1031 30.45 860 25.4 8.2 46.7 46 -2.8 26.9
19:00 1031 30.45 860 25.4 8 46.4 47 -2.8 27
19:05 1031 30.45 860 25.4 7.7 45.9 48 -2.6 27.3
19:10 1031 30.45 860 25.4 7.5 45.4 48 -2.8 27
19:15 1031 30.45 860 25.4 7.4 45.2 49 -2.6 27.3
19:20 1031 30.45 860 25.4 7.4 45.2 48 -2.9 26.8
19:25 1031 30.45 860 25.4 7.4 45.4 48 -2.8 27
19:30 1031 30.45 860 25.4 7.5 45.4 49 -2.6 27.2
19:35 1031 30.45 860 25.4 7.4 45.2 49 -2.5 27.4
19:40 1031 30.45 860 25.4 7.1 44.8 51 -2.4 27.7
19:45 1031 30.45 860 25.4 6.8 44.3 51 -2.5 27.6
19:50 1031 30.45 860 25.4 6.6 44 52 -2.5 27.5
19:55 1031 30.45 860 25.4 6.3 43.4 53 -2.5 27.4
20:00 1031 30.45 860 25.4 6.2 43.1 54 -2.4 27.6
20:05 1031 30.45 860 25.4 6 42.7 54 -2.5 27.5
20:10 1031 30.45 860 25.4 5.8 42.5 55 -2.5 27.6
20:15 1031 30.45 860 25.4 5.6 42.1 57 -2.3 27.9
20:20 1031 30.45 860 25.4 5.2 41.3 58 -2.4 27.7
20:25 1031 30.45 860 25.4 5.2 41.4 57 -2.5 27.5
20:30 1031 30.45 860 25.4 5.3 41.5 57 -2.4 27.6
20:35 1031 30.45 860 25.4 5.3 41.5 57 -2.5 27.5
20:40 1031 30.45 860 25.4 5.6 42 56 -2.5 27.5
20:45 1031 30.45 860 25.4 5.7 42.2 55 -2.7 27.2
20:50 1031 30.45 860 25.4 6 42.8 54 -2.5 27.5
20:55 1031 30.45 860 25.4 5.9 42.7 55 -2.5 27.5
21:00 1031 30.45 860 25.4 5.7 42.2 56 -2.4 27.7
21:05 1031 30.45 860 25.4 5.7 42.3 55 -2.6 27.3
21:10 1031 30.45 860 25.4 5.9 42.6 55 -2.5 27.5
21:15 1031 30.45 860 25.4 5.9 42.6 55 -2.5 27.4
21:20 1031 30.45 860 25.4 5.8 42.5 56 -2.4 27.7
21:25 1031 30.45 860 25.4 5.5 41.9 57 -2.2 28
21:30 1031 30.45 860 25.4 4.7 40.4 62 -2 28.4
21:35 1031 30.45 860 25.4 4 39.1 63 -2.5 27.5
21:40 1031 30.45 860 25.4 4.3 39.7 61 -2.6 27.3
21:45 1031 30.45 860 25.4 5.4 41.8 54 -3.2 26.3
21:50 1031 30.45 860 25.4 6.4 43.6 52 -2.6 27.4
21:55 1031 30.45 860 25.4 5.9 42.7 56 -2.1 28.2
22:00 1031 30.45 860 25.4 5.1 41.1 59 -2.2 28
22:05 1031 30.45 860 25.4 4.5 40.1 61 -2.4 27.7
22:10 1031 30.45 860 25.4 4 39.2 63 -2.4 27.7
22:15 1031 30.45 860 25.4 3.9 39 63 -2.5 27.4
22:20 1031 30.45 860 25.4 3.8 38.8 64 -2.5 27.5
22:25 1031 30.45 860 25.4 3.5 38.3 65 -2.5 27.6
22:30 1031 30.45 860 25.4 3.2 37.8 66 -2.4 27.6
22:35 1031 30.45 860 25.4 3.2 37.7 65 -2.8 27
22:40 1031 30.45 860 25.4 4.1 39.3 61 -2.8 27
22:45 1031 30.45 860 25.4 4.6 40.2 58 -2.9 26.7
22:50 1031 30.45 860 25.4 5.1 41.2 56 -2.9 26.7
22:55 1031 30.45 860 25.4 5.2 41.4 55 -3 26.6
23:00 1031 30.45 860 25.4 5.1 41.2 56 -2.9 26.7
23:05 1031 30.45 860 25.4 4.8 40.6 57 -3.1 26.4
23:10 1031 30.45 860 25.4 5 41.1 54 -3.5 25.6
23:15 1031 30.45 860 25.4 5.3 41.6 53 -3.4 25.8
23:20 1031 30.45 860 25.4 5.5 42 52 -3.5 25.6
23:25 1031 30.45 860 25.4 5.5 41.9 53 -3.4 25.9
23:30 1031 30.45 860 25.4 5.5 41.9 52 -3.5 25.8
23:35 1031 30.45 860 25.4 5.4 41.7 54 -3.3 26.1
23:40 1031 30.45 860 25.4 5.5 41.9 52 -3.4 25.8
23:45 1031 30.45 860 25.4 5.4 41.8 54 -3.2 26.2
23:50 1031 30.45 860 25.4 5 41 56 -3.1 26.4
23:55 1031 30.45 860 25.4 4.5 40.2 57 -3.3 26.1
24:00 1031 30.45 860 25.4 4.1 39.4 59 -3.3 26.1